sensor_id;sensor_type;location;lat;lon;timestamp;temperature;humidity
17992;DHT22;9121;50.926;5.340;2024-01-10T00:01:45;-2.80;99.90
17992;DHT22;9121;50.926;5.340;2024-01-10T00:04:12;-2.80;99.90
17992;DHT22;9121;50.926;5.340;2024-01-10T00:06:42;-2.80;99.90
17992;DHT22;9121;50.926;5.340;2024-01-10T00:09:09;-2.90;99.90
17992;DHT22;9121;50.926;5.340;2024-01-10T00:11:36;-3.00;1.00
17992;DHT22;9121;50.926;5.340;2024-01-10T00:14:03;-3.00;1.00
17992;DHT22;9121;50.926;5.340;2024-01-10T00:16:32;-3.10;1.00
17992;DHT22;9121;50.926;5.340;2024-01-10T00:18:59;-3.10;1.00
17992;DHT22;9121;50.926;5.340;2024-01-10T00:21:26;-3.10;1.00
17992;DHT22;9121;50.926;5.340;2024-01-10T00:23:53;-3.20;1.00
17992;DHT22;9121;50.926;5.340;2024-01-10T00:26:20;-3.20;1.00
17992;DHT22;9121;50.926;5.340;2024-01-10T00:28:47;-3.20;99.90
17992;DHT22;9121;50.926;5.340;2024-01-10T00:31:14;-3.20;99.90
17992;DHT22;9121;50.926;5.340;2024-01-10T00:33:42;-3.20;99.90
17992;DHT22;9121;50.926;5.340;2024-01-10T00:36:09;-3.20;99.90
17992;DHT22;9121;50.926;5.340;2024-01-10T00:38:36;-3.20;99.90
17992;DHT22;9121;50.926;5.340;2024-01-10T00:41:04;-3.20;99.90
17992;DHT22;9121;50.926;5.340;2024-01-10T00:43:31;-3.20;99.90
17992;DHT22;9121;50.926;5.340;2024-01-10T00:45:58;-3.10;99.90
17992;DHT22;9121;50.926;5.340;2024-01-10T00:48:24;-3.10;99.90
17992;DHT22;9121;50.926;5.340;2024-01-10T00:50:53;-3.20;99.90
17992;DHT22;9121;50.926;5.340;2024-01-10T00:53:20;-3.30;99.90
17992;DHT22;9121;50.926;5.340;2024-01-10T00:55:46;-3.30;1.00
17992;DHT22;9121;50.926;5.340;2024-01-10T00:58:13;-3.30;1.00
17992;DHT22;9121;50.926;5.340;2024-01-10T01:00:40;-3.30;99.90
17992;DHT22;9121;50.926;5.340;2024-01-10T01:03:07;-3.40;99.90
17992;DHT22;9121;50.926;5.340;2024-01-10T01:05:34;-3.40;1.00
17992;DHT22;9121;50.926;5.340;2024-01-10T01:08:03;-3.30;1.00
17992;DHT22;9121;50.926;5.340;2024-01-10T01:10:30;-3.40;1.00
17992;DHT22;9121;50.926;5.340;2024-01-10T01:12:57;-3.40;1.00
17992;DHT22;9121;50.926;5.340;2024-01-10T01:15:23;-3.40;1.00
17992;DHT22;9121;50.926;5.340;2024-01-10T01:17:50;-3.30;1.00
17992;DHT22;9121;50.926;5.340;2024-01-10T01:20:17;-3.40;1.00
17992;DHT22;9121;50.926;5.340;2024-01-10T01:22:44;-3.40;1.00
17992;DHT22;9121;50.926;5.340;2024-01-10T01:25:13;-3.40;1.00
17992;DHT22;9121;50.926;5.340;2024-01-10T01:27:39;-3.40;1.00
17992;DHT22;9121;50.926;5.340;2024-01-10T01:30:07;-3.50;1.00
17992;DHT22;9121;50.926;5.340;2024-01-10T01:32:34;-3.50;1.00
17992;DHT22;9121;50.926;5.340;2024-01-10T01:35:01;-3.40;86.80
17992;DHT22;9121;50.926;5.340;2024-01-10T01:37:28;-3.50;99.90
17992;DHT22;9121;50.926;5.340;2024-01-10T01:39:55;-3.60;99.90
17992;DHT22;9121;50.926;5.340;2024-01-10T01:42:24;-3.50;99.90
17992;DHT22;9121;50.926;5.340;2024-01-10T01:44:51;-3.50;99.90
17992;DHT22;9121;50.926;5.340;2024-01-10T01:47:18;-3.50;99.90
17992;DHT22;9121;50.926;5.340;2024-01-10T01:49:45;-3.60;99.90
17992;DHT22;9121;50.926;5.340;2024-01-10T01:52:11;-3.60;99.90
17992;DHT22;9121;50.926;5.340;2024-01-10T01:54:39;-3.70;99.90
17992;DHT22;9121;50.926;5.340;2024-01-10T01:57:06;-3.70;99.90
17992;DHT22;9121;50.926;5.340;2024-01-10T01:59:35;-3.70;1.00
17992;DHT22;9121;50.926;5.340;2024-01-10T02:02:03;-3.60;1.00
17992;DHT22;9121;50.926;5.340;2024-01-10T02:04:31;-3.60;1.00
17992;DHT22;9121;50.926;5.340;2024-01-10T02:06:58;-3.60;1.00
17992;DHT22;9121;50.926;5.340;2024-01-10T02:09:25;-3.50;1.00
17992;DHT22;9121;50.926;5.340;2024-01-10T02:11:53;-3.50;1.00
17992;DHT22;9121;50.926;5.340;2024-01-10T02:14:20;-3.40;99.90
17992;DHT22;9121;50.926;5.340;2024-01-10T02:16:48;-3.40;99.90
17992;DHT22;9121;50.926;5.340;2024-01-10T02:19:20;-3.30;99.90
17992;DHT22;9121;50.926;5.340;2024-01-10T02:21:47;-3.30;99.90
17992;DHT22;9121;50.926;5.340;2024-01-10T02:24:14;-3.30;99.90
17992;DHT22;9121;50.926;5.340;2024-01-10T02:26:43;-3.30;99.90
17992;DHT22;9121;50.926;5.340;2024-01-10T02:29:10;-3.40;99.90
17992;DHT22;9121;50.926;5.340;2024-01-10T02:31:37;-3.40;1.00
17992;DHT22;9121;50.926;5.340;2024-01-10T02:34:04;-3.40;1.00
17992;DHT22;9121;50.926;5.340;2024-01-10T02:36:31;-3.30;1.00
17992;DHT22;9121;50.926;5.340;2024-01-10T02:38:57;-3.30;1.00
17992;DHT22;9121;50.926;5.340;2024-01-10T02:41:24;-3.30;1.00
17992;DHT22;9121;50.926;5.340;2024-01-10T02:43:54;-3.30;1.00
17992;DHT22;9121;50.926;5.340;2024-01-10T02:46:24;-3.30;99.90
17992;DHT22;9121;50.926;5.340;2024-01-10T02:48:53;-3.30;1.00
17992;DHT22;9121;50.926;5.340;2024-01-10T02:51:21;-3.40;1.00
17992;DHT22;9121;50.926;5.340;2024-01-10T02:53:48;-3.50;1.00
17992;DHT22;9121;50.926;5.340;2024-01-10T02:56:15;-3.50;1.00
17992;DHT22;9121;50.926;5.340;2024-01-10T02:58:42;-3.40;1.00
17992;DHT22;9121;50.926;5.340;2024-01-10T03:01:10;-3.40;1.00
17992;DHT22;9121;50.926;5.340;2024-01-10T03:03:37;-3.30;1.00
17992;DHT22;9121;50.926;5.340;2024-01-10T03:06:04;-3.30;99.90
17992;DHT22;9121;50.926;5.340;2024-01-10T03:08:31;-3.30;99.90
17992;DHT22;9121;50.926;5.340;2024-01-10T03:10:58;-3.30;99.90
17992;DHT22;9121;50.926;5.340;2024-01-10T03:13:26;-3.30;99.90
17992;DHT22;9121;50.926;5.340;2024-01-10T03:15:53;-3.40;99.90
17992;DHT22;9121;50.926;5.340;2024-01-10T03:18:21;-3.40;99.90
17992;DHT22;9121;50.926;5.340;2024-01-10T03:20:48;-3.40;99.90
17992;DHT22;9121;50.926;5.340;2024-01-10T03:23:15;-3.50;99.90
17992;DHT22;9121;50.926;5.340;2024-01-10T03:25:42;-3.50;99.90
17992;DHT22;9121;50.926;5.340;2024-01-10T03:28:08;-3.40;99.90
17992;DHT22;9121;50.926;5.340;2024-01-10T03:30:35;-3.50;99.90
17992;DHT22;9121;50.926;5.340;2024-01-10T03:33:03;-3.50;1.00
17992;DHT22;9121;50.926;5.340;2024-01-10T03:35:31;-3.50;1.00
17992;DHT22;9121;50.926;5.340;2024-01-10T03:37:58;-3.50;1.00
17992;DHT22;9121;50.926;5.340;2024-01-10T03:40:25;-3.60;99.90
17992;DHT22;9121;50.926;5.340;2024-01-10T03:42:52;-3.60;1.00
17992;DHT22;9121;50.926;5.340;2024-01-10T03:45:19;-3.50;1.00
17992;DHT22;9121;50.926;5.340;2024-01-10T03:47:48;-3.30;99.90
17992;DHT22;9121;50.926;5.340;2024-01-10T03:50:17;-3.30;99.90
17992;DHT22;9121;50.926;5.340;2024-01-10T03:52:46;-3.40;4.40
17992;DHT22;9121;50.926;5.340;2024-01-10T03:55:13;-3.50;10.90
17992;DHT22;9121;50.926;5.340;2024-01-10T03:57:41;-3.70;99.90
17992;DHT22;9121;50.926;5.340;2024-01-10T04:00:09;-3.70;1.00
17992;DHT22;9121;50.926;5.340;2024-01-10T04:02:37;-3.80;99.90
17992;DHT22;9121;50.926;5.340;2024-01-10T04:05:07;-3.80;1.00
17992;DHT22;9121;50.926;5.340;2024-01-10T04:07:36;-3.80;1.00
17992;DHT22;9121;50.926;5.340;2024-01-10T04:10:05;-3.80;1.00
17992;DHT22;9121;50.926;5.340;2024-01-10T04:12:35;-3.80;1.00
17992;DHT22;9121;50.926;5.340;2024-01-10T04:15:03;-3.70;1.00
17992;DHT22;9121;50.926;5.340;2024-01-10T04:17:30;-3.70;1.00
17992;DHT22;9121;50.926;5.340;2024-01-10T04:19:57;-3.70;99.90
17992;DHT22;9121;50.926;5.340;2024-01-10T04:22:24;-3.80;1.00
17992;DHT22;9121;50.926;5.340;2024-01-10T04:24:52;-3.80;1.00
17992;DHT22;9121;50.926;5.340;2024-01-10T04:27:20;-3.80;99.90
17992;DHT22;9121;50.926;5.340;2024-01-10T04:29:47;-3.80;99.90
17992;DHT22;9121;50.926;5.340;2024-01-10T04:32:14;-3.80;1.00
17992;DHT22;9121;50.926;5.340;2024-01-10T04:34:41;-3.80;99.90
17992;DHT22;9121;50.926;5.340;2024-01-10T04:37:08;-3.80;99.90
17992;DHT22;9121;50.926;5.340;2024-01-10T04:39:35;-3.80;99.90
17992;DHT22;9121;50.926;5.340;2024-01-10T04:42:03;-3.80;99.90
17992;DHT22;9121;50.926;5.340;2024-01-10T04:44:32;-3.80;99.90
17992;DHT22;9121;50.926;5.340;2024-01-10T04:46:59;-3.80;99.90
17992;DHT22;9121;50.926;5.340;2024-01-10T04:49:26;-3.80;1.00
17992;DHT22;9121;50.926;5.340;2024-01-10T04:51:53;-3.70;99.90
17992;DHT22;9121;50.926;5.340;2024-01-10T04:54:20;-3.70;99.90
17992;DHT22;9121;50.926;5.340;2024-01-10T04:56:47;-3.70;99.90
17992;DHT22;9121;50.926;5.340;2024-01-10T04:59:14;-3.80;99.90
17992;DHT22;9121;50.926;5.340;2024-01-10T05:01:42;-3.80;99.90
17992;DHT22;9121;50.926;5.340;2024-01-10T05:04:09;-3.80;1.00
17992;DHT22;9121;50.926;5.340;2024-01-10T05:06:36;-3.80;99.90
17992;DHT22;9121;50.926;5.340;2024-01-10T05:09:03;-3.80;1.00
17992;DHT22;9121;50.926;5.340;2024-01-10T05:11:30;-3.80;1.00
17992;DHT22;9121;50.926;5.340;2024-01-10T05:13:57;-3.80;1.00
17992;DHT22;9121;50.926;5.340;2024-01-10T05:16:24;-3.80;1.00
17992;DHT22;9121;50.926;5.340;2024-01-10T05:18:52;-3.90;1.00
17992;DHT22;9121;50.926;5.340;2024-01-10T05:21:19;-3.90;1.00
17992;DHT22;9121;50.926;5.340;2024-01-10T05:23:46;-3.90;1.00
17992;DHT22;9121;50.926;5.340;2024-01-10T05:26:14;-3.80;1.00
17992;DHT22;9121;50.926;5.340;2024-01-10T05:28:40;-3.80;1.00
17992;DHT22;9121;50.926;5.340;2024-01-10T05:31:07;-3.80;99.90
17992;DHT22;9121;50.926;5.340;2024-01-10T05:33:34;-3.80;99.90
17992;DHT22;9121;50.926;5.340;2024-01-10T05:36:03;-3.90;99.90
17992;DHT22;9121;50.926;5.340;2024-01-10T05:38:30;-3.90;99.90
17992;DHT22;9121;50.926;5.340;2024-01-10T05:40:56;-3.90;99.90
17992;DHT22;9121;50.926;5.340;2024-01-10T05:43:24;-3.90;99.90
17992;DHT22;9121;50.926;5.340;2024-01-10T05:45:50;-3.90;99.90
17992;DHT22;9121;50.926;5.340;2024-01-10T05:48:17;-3.80;99.90
17992;DHT22;9121;50.926;5.340;2024-01-10T05:50:44;-3.80;99.90
17992;DHT22;9121;50.926;5.340;2024-01-10T05:53:13;-3.70;99.90
17992;DHT22;9121;50.926;5.340;2024-01-10T05:55:42;-3.70;99.90
17992;DHT22;9121;50.926;5.340;2024-01-10T05:58:09;-3.80;99.90
17992;DHT22;9121;50.926;5.340;2024-01-10T06:00:36;-3.80;99.90
17992;DHT22;9121;50.926;5.340;2024-01-10T06:03:04;-3.80;99.90
17992;DHT22;9121;50.926;5.340;2024-01-10T06:05:31;-3.80;99.90
17992;DHT22;9121;50.926;5.340;2024-01-10T06:07:58;-3.80;99.90
17992;DHT22;9121;50.926;5.340;2024-01-10T06:10:26;-3.80;99.90
17992;DHT22;9121;50.926;5.340;2024-01-10T06:12:54;-3.80;99.90
17992;DHT22;9121;50.926;5.340;2024-01-10T06:15:23;-3.90;99.90
17992;DHT22;9121;50.926;5.340;2024-01-10T06:17:49;-3.90;99.90
17992;DHT22;9121;50.926;5.340;2024-01-10T06:20:17;-4.00;99.90
17992;DHT22;9121;50.926;5.340;2024-01-10T06:22:44;-3.90;99.90
17992;DHT22;9121;50.926;5.340;2024-01-10T06:25:12;-3.90;99.90
17992;DHT22;9121;50.926;5.340;2024-01-10T06:27:40;-3.80;1.00
17992;DHT22;9121;50.926;5.340;2024-01-10T06:30:08;-3.70;99.90
17992;DHT22;9121;50.926;5.340;2024-01-10T06:32:35;-3.70;99.90
17992;DHT22;9121;50.926;5.340;2024-01-10T06:35:02;-3.80;55.20
17992;DHT22;9121;50.926;5.340;2024-01-10T06:37:30;-3.70;99.90
17992;DHT22;9121;50.926;5.340;2024-01-10T06:39:57;-3.80;31.90
17992;DHT22;9121;50.926;5.340;2024-01-10T06:42:24;-3.80;4.00
17992;DHT22;9121;50.926;5.340;2024-01-10T06:44:53;-3.70;1.00
17992;DHT22;9121;50.926;5.340;2024-01-10T06:47:20;-3.90;1.00
17992;DHT22;9121;50.926;5.340;2024-01-10T06:49:47;-3.90;1.00
17992;DHT22;9121;50.926;5.340;2024-01-10T06:52:14;-3.90;1.00
17992;DHT22;9121;50.926;5.340;2024-01-10T06:54:42;-3.90;1.00
17992;DHT22;9121;50.926;5.340;2024-01-10T06:57:09;-3.90;1.00
17992;DHT22;9121;50.926;5.340;2024-01-10T06:59:36;-3.90;99.90
17992;DHT22;9121;50.926;5.340;2024-01-10T07:02:04;-3.80;1.00
17992;DHT22;9121;50.926;5.340;2024-01-10T07:04:32;-3.80;7.40
17992;DHT22;9121;50.926;5.340;2024-01-10T07:06:59;-3.90;99.90
17992;DHT22;9121;50.926;5.340;2024-01-10T07:09:26;-3.90;99.90
17992;DHT22;9121;50.926;5.340;2024-01-10T07:11:53;-3.90;99.90
17992;DHT22;9121;50.926;5.340;2024-01-10T07:14:20;-3.90;99.90
17992;DHT22;9121;50.926;5.340;2024-01-10T07:16:46;-3.80;99.90
17992;DHT22;9121;50.926;5.340;2024-01-10T07:19:15;-3.80;99.90
17992;DHT22;9121;50.926;5.340;2024-01-10T07:21:42;-3.90;99.90
17992;DHT22;9121;50.926;5.340;2024-01-10T07:24:09;-3.90;1.00
17992;DHT22;9121;50.926;5.340;2024-01-10T07:26:37;-3.90;1.00
17992;DHT22;9121;50.926;5.340;2024-01-10T07:29:04;-3.90;99.90
17992;DHT22;9121;50.926;5.340;2024-01-10T07:31:34;-3.90;99.90
17992;DHT22;9121;50.926;5.340;2024-01-10T07:34:01;-4.10;1.00
17992;DHT22;9121;50.926;5.340;2024-01-10T07:36:31;-4.10;1.00
17992;DHT22;9121;50.926;5.340;2024-01-10T07:38:59;-4.10;1.00
17992;DHT22;9121;50.926;5.340;2024-01-10T07:41:26;-4.10;1.00
17992;DHT22;9121;50.926;5.340;2024-01-10T07:43:53;-4.00;1.00
17992;DHT22;9121;50.926;5.340;2024-01-10T07:46:20;-3.90;1.00
17992;DHT22;9121;50.926;5.340;2024-01-10T07:48:48;-3.80;1.00
17992;DHT22;9121;50.926;5.340;2024-01-10T07:51:15;-3.80;1.00
17992;DHT22;9121;50.926;5.340;2024-01-10T07:53:43;-3.80;1.00
17992;DHT22;9121;50.926;5.340;2024-01-10T07:56:10;-3.90;99.90
17992;DHT22;9121;50.926;5.340;2024-01-10T07:58:38;-3.90;1.00
17992;DHT22;9121;50.926;5.340;2024-01-10T08:01:05;-3.90;1.00
17992;DHT22;9121;50.926;5.340;2024-01-10T08:03:32;-3.80;1.00
17992;DHT22;9121;50.926;5.340;2024-01-10T08:06:01;-3.80;1.00
17992;DHT22;9121;50.926;5.340;2024-01-10T08:08:28;-3.90;1.00
17992;DHT22;9121;50.926;5.340;2024-01-10T08:10:57;-3.90;1.00
17992;DHT22;9121;50.926;5.340;2024-01-10T08:13:24;-3.80;1.00
17992;DHT22;9121;50.926;5.340;2024-01-10T08:15:51;-3.80;1.00
17992;DHT22;9121;50.926;5.340;2024-01-10T08:18:18;-3.80;99.90
17992;DHT22;9121;50.926;5.340;2024-01-10T08:20:45;-3.80;1.00
17992;DHT22;9121;50.926;5.340;2024-01-10T08:23:12;-3.80;99.90
17992;DHT22;9121;50.926;5.340;2024-01-10T08:25:39;-4.00;1.00
17992;DHT22;9121;50.926;5.340;2024-01-10T08:28:11;-4.00;1.00
17992;DHT22;9121;50.926;5.340;2024-01-10T08:30:39;-4.00;1.00
17992;DHT22;9121;50.926;5.340;2024-01-10T08:33:06;-4.00;1.00
17992;DHT22;9121;50.926;5.340;2024-01-10T08:35:32;-3.90;1.00
17992;DHT22;9121;50.926;5.340;2024-01-10T08:37:59;-3.90;1.00
17992;DHT22;9121;50.926;5.340;2024-01-10T08:40:28;-3.80;1.00
17992;DHT22;9121;50.926;5.340;2024-01-10T08:42:55;-3.80;1.00
17992;DHT22;9121;50.926;5.340;2024-01-10T08:45:23;-3.90;1.00
17992;DHT22;9121;50.926;5.340;2024-01-10T08:47:50;-3.90;1.00
17992;DHT22;9121;50.926;5.340;2024-01-10T08:50:18;-3.80;1.00
17992;DHT22;9121;50.926;5.340;2024-01-10T08:52:45;-3.70;1.00
17992;DHT22;9121;50.926;5.340;2024-01-10T08:55:13;-3.60;1.00
17992;DHT22;9121;50.926;5.340;2024-01-10T08:57:40;-3.60;99.90
17992;DHT22;9121;50.926;5.340;2024-01-10T09:00:08;-3.60;1.00
17992;DHT22;9121;50.926;5.340;2024-01-10T09:02:38;-3.60;99.90
17992;DHT22;9121;50.926;5.340;2024-01-10T09:05:06;-3.60;99.90
17992;DHT22;9121;50.926;5.340;2024-01-10T09:07:35;-3.60;99.90
17992;DHT22;9121;50.926;5.340;2024-01-10T09:10:03;-3.70;99.90
17992;DHT22;9121;50.926;5.340;2024-01-10T09:12:31;-3.60;1.00
17992;DHT22;9121;50.926;5.340;2024-01-10T09:14:57;-3.60;99.90
17992;DHT22;9121;50.926;5.340;2024-01-10T09:17:24;-3.50;1.00
17992;DHT22;9121;50.926;5.340;2024-01-10T09:19:52;-3.40;99.90
17992;DHT22;9121;50.926;5.340;2024-01-10T09:22:19;-3.20;99.90
17992;DHT22;9121;50.926;5.340;2024-01-10T09:24:45;-3.30;2.80
17992;DHT22;9121;50.926;5.340;2024-01-10T09:27:13;-3.20;25.60
17992;DHT22;9121;50.926;5.340;2024-01-10T09:29:40;-3.10;1.00
17992;DHT22;9121;50.926;5.340;2024-01-10T09:32:07;-3.00;1.00
17992;DHT22;9121;50.926;5.340;2024-01-10T09:34:34;-2.90;1.00
17992;DHT22;9121;50.926;5.340;2024-01-10T09:37:02;-2.90;1.00
17992;DHT22;9121;50.926;5.340;2024-01-10T09:39:30;-2.90;99.90
17992;DHT22;9121;50.926;5.340;2024-01-10T09:41:58;-2.90;99.90
17992;DHT22;9121;50.926;5.340;2024-01-10T09:44:27;-2.80;99.90
17992;DHT22;9121;50.926;5.340;2024-01-10T09:46:55;-2.90;99.90
17992;DHT22;9121;50.926;5.340;2024-01-10T09:49:22;-2.90;99.90
17992;DHT22;9121;50.926;5.340;2024-01-10T09:51:49;-2.80;99.90
17992;DHT22;9121;50.926;5.340;2024-01-10T09:54:19;-2.70;99.90
17992;DHT22;9121;50.926;5.340;2024-01-10T09:56:47;-2.60;92.90
17992;DHT22;9121;50.926;5.340;2024-01-10T09:59:14;-2.50;1.00
17992;DHT22;9121;50.926;5.340;2024-01-10T10:01:42;-2.30;1.00
17992;DHT22;9121;50.926;5.340;2024-01-10T10:04:11;-2.30;1.00
17992;DHT22;9121;50.926;5.340;2024-01-10T10:06:38;-2.30;1.00
17992;DHT22;9121;50.926;5.340;2024-01-10T10:09:07;-2.30;1.00
17992;DHT22;9121;50.926;5.340;2024-01-10T10:11:35;-2.30;1.00
17992;DHT22;9121;50.926;5.340;2024-01-10T10:14:14;-2.20;1.00
17992;DHT22;9121;50.926;5.340;2024-01-10T10:16:41;-2.00;1.00
17992;DHT22;9121;50.926;5.340;2024-01-10T10:19:08;-1.90;99.90
17992;DHT22;9121;50.926;5.340;2024-01-10T10:21:37;-1.80;99.90
17992;DHT22;9121;50.926;5.340;2024-01-10T10:24:04;-1.90;1.00
17992;DHT22;9121;50.926;5.340;2024-01-10T10:26:33;-1.90;1.00
17992;DHT22;9121;50.926;5.340;2024-01-10T10:29:01;-1.80;1.00
17992;DHT22;9121;50.926;5.340;2024-01-10T10:31:29;-1.90;1.00
17992;DHT22;9121;50.926;5.340;2024-01-10T10:33:59;-1.70;1.00
17992;DHT22;9121;50.926;5.340;2024-01-10T10:36:28;-1.80;1.00
17992;DHT22;9121;50.926;5.340;2024-01-10T10:38:59;-1.70;1.00
17992;DHT22;9121;50.926;5.340;2024-01-10T10:41:30;-1.70;99.90
17992;DHT22;9121;50.926;5.340;2024-01-10T10:43:58;-1.60;99.90
17992;DHT22;9121;50.926;5.340;2024-01-10T10:46:27;-1.70;99.90
17992;DHT22;9121;50.926;5.340;2024-01-10T10:48:59;-1.70;1.00
17992;DHT22;9121;50.926;5.340;2024-01-10T10:51:33;-1.50;99.90
17992;DHT22;9121;50.926;5.340;2024-01-10T10:54:00;-1.50;99.90
17992;DHT22;9121;50.926;5.340;2024-01-10T10:56:30;-1.50;99.90
17992;DHT22;9121;50.926;5.340;2024-01-10T10:58:58;-1.50;99.90
17992;DHT22;9121;50.926;5.340;2024-01-10T11:01:29;-1.50;99.90
17992;DHT22;9121;50.926;5.340;2024-01-10T11:03:56;-1.40;99.90
17992;DHT22;9121;50.926;5.340;2024-01-10T11:06:24;-1.40;84.00
17992;DHT22;9121;50.926;5.340;2024-01-10T11:08:55;-1.40;36.90
17992;DHT22;9121;50.926;5.340;2024-01-10T11:11:33;-1.30;56.90
17992;DHT22;9121;50.926;5.340;2024-01-10T11:14:12;-1.20;45.90
17992;DHT22;9121;50.926;5.340;2024-01-10T11:17:07;-1.20;1.00
17992;DHT22;9121;50.926;5.340;2024-01-10T11:20:14;-1.10;1.00
17992;DHT22;9121;50.926;5.340;2024-01-10T11:23:00;-1.10;1.00
17992;DHT22;9121;50.926;5.340;2024-01-10T11:25:31;-1.10;1.00
17992;DHT22;9121;50.926;5.340;2024-01-10T11:28:02;-1.10;1.00
17992;DHT22;9121;50.926;5.340;2024-01-10T11:30:36;-1.20;1.00
17992;DHT22;9121;50.926;5.340;2024-01-10T11:33:20;-1.20;1.00
17992;DHT22;9121;50.926;5.340;2024-01-10T11:36:11;-1.20;1.00
17992;DHT22;9121;50.926;5.340;2024-01-10T11:38:43;-1.20;1.00
17992;DHT22;9121;50.926;5.340;2024-01-10T11:41:11;-1.00;1.00
17992;DHT22;9121;50.926;5.340;2024-01-10T11:43:39;-1.00;1.00
17992;DHT22;9121;50.926;5.340;2024-01-10T11:46:06;-1.00;1.00
17992;DHT22;9121;50.926;5.340;2024-01-10T11:48:37;-1.00;1.00
17992;DHT22;9121;50.926;5.340;2024-01-10T11:51:04;-0.90;1.00
17992;DHT22;9121;50.926;5.340;2024-01-10T11:53:43;-1.00;1.00
17992;DHT22;9121;50.926;5.340;2024-01-10T11:56:12;-0.90;1.00
17992;DHT22;9121;50.926;5.340;2024-01-10T11:58:53;-0.90;1.00
17992;DHT22;9121;50.926;5.340;2024-01-10T12:01:21;-0.80;1.00
17992;DHT22;9121;50.926;5.340;2024-01-10T12:03:51;-0.70;1.00
17992;DHT22;9121;50.926;5.340;2024-01-10T12:06:21;-0.60;1.00
17992;DHT22;9121;50.926;5.340;2024-01-10T12:08:48;-0.60;1.00
17992;DHT22;9121;50.926;5.340;2024-01-10T12:11:16;-0.50;1.00
17992;DHT22;9121;50.926;5.340;2024-01-10T12:13:43;-0.40;1.00
17992;DHT22;9121;50.926;5.340;2024-01-10T12:16:11;-0.30;1.00
17992;DHT22;9121;50.926;5.340;2024-01-10T12:18:38;-0.20;1.00
17992;DHT22;9121;50.926;5.340;2024-01-10T12:21:07;-0.10;1.00
17992;DHT22;9121;50.926;5.340;2024-01-10T12:23:36;0.10;1.00
17992;DHT22;9121;50.926;5.340;2024-01-10T12:26:05;0.30;1.00
17992;DHT22;9121;50.926;5.340;2024-01-10T12:28:33;0.60;99.90
17992;DHT22;9121;50.926;5.340;2024-01-10T12:31:01;0.80;99.90
17992;DHT22;9121;50.926;5.340;2024-01-10T12:33:28;1.10;99.90
17992;DHT22;9121;50.926;5.340;2024-01-10T12:36:10;1.30;99.90
17992;DHT22;9121;50.926;5.340;2024-01-10T12:38:38;1.50;99.90
17992;DHT22;9121;50.926;5.340;2024-01-10T12:41:05;1.60;99.90
17992;DHT22;9121;50.926;5.340;2024-01-10T12:43:35;1.80;99.90
17992;DHT22;9121;50.926;5.340;2024-01-10T12:46:05;1.90;94.80
17992;DHT22;9121;50.926;5.340;2024-01-10T12:48:33;1.70;58.90
17992;DHT22;9121;50.926;5.340;2024-01-10T12:51:02;1.80;49.20
17992;DHT22;9121;50.926;5.340;2024-01-10T12:53:33;2.00;1.00
17992;DHT22;9121;50.926;5.340;2024-01-10T12:56:01;2.00;1.00
17992;DHT22;9121;50.926;5.340;2024-01-10T12:58:28;1.80;1.00
17992;DHT22;9121;50.926;5.340;2024-01-10T13:00:55;1.50;1.00
17992;DHT22;9121;50.926;5.340;2024-01-10T13:03:23;1.40;1.00
17992;DHT22;9121;50.926;5.340;2024-01-10T13:05:50;1.40;1.00
17992;DHT22;9121;50.926;5.340;2024-01-10T13:08:17;1.80;1.00
17992;DHT22;9121;50.926;5.340;2024-01-10T13:10:46;2.10;1.00
17992;DHT22;9121;50.926;5.340;2024-01-10T13:13:14;2.50;1.00
17992;DHT22;9121;50.926;5.340;2024-01-10T13:15:43;2.60;1.00
17992;DHT22;9121;50.926;5.340;2024-01-10T13:18:10;2.80;1.00
17992;DHT22;9121;50.926;5.340;2024-01-10T13:20:37;2.70;1.00
17992;DHT22;9121;50.926;5.340;2024-01-10T13:23:05;2.60;1.00
17992;DHT22;9121;50.926;5.340;2024-01-10T13:25:33;2.60;1.00
17992;DHT22;9121;50.926;5.340;2024-01-10T13:28:02;2.50;1.00
17992;DHT22;9121;50.926;5.340;2024-01-10T13:30:30;2.40;1.00
17992;DHT22;9121;50.926;5.340;2024-01-10T13:32:57;2.50;1.00
17992;DHT22;9121;50.926;5.340;2024-01-10T13:35:24;2.70;1.00
17992;DHT22;9121;50.926;5.340;2024-01-10T13:37:51;2.60;1.00
17992;DHT22;9121;50.926;5.340;2024-01-10T13:40:18;2.60;1.00
17992;DHT22;9121;50.926;5.340;2024-01-10T13:42:49;2.90;1.00
17992;DHT22;9121;50.926;5.340;2024-01-10T13:45:18;2.80;1.00
17992;DHT22;9121;50.926;5.340;2024-01-10T13:47:46;2.70;1.00
17992;DHT22;9121;50.926;5.340;2024-01-10T13:50:14;2.10;1.00
17992;DHT22;9121;50.926;5.340;2024-01-10T13:52:41;1.80;1.00
17992;DHT22;9121;50.926;5.340;2024-01-10T13:55:10;1.70;1.00
17992;DHT22;9121;50.926;5.340;2024-01-10T13:57:37;1.60;1.00
17992;DHT22;9121;50.926;5.340;2024-01-10T14:00:05;1.50;1.00
17992;DHT22;9121;50.926;5.340;2024-01-10T14:02:35;1.20;1.00
17992;DHT22;9121;50.926;5.340;2024-01-10T14:05:02;0.70;1.00
17992;DHT22;9121;50.926;5.340;2024-01-10T14:07:31;0.60;1.00
17992;DHT22;9121;50.926;5.340;2024-01-10T14:09:59;0.70;1.00
17992;DHT22;9121;50.926;5.340;2024-01-10T14:12:27;0.80;1.00
17992;DHT22;9121;50.926;5.340;2024-01-10T14:14:54;0.80;1.00
17992;DHT22;9121;50.926;5.340;2024-01-10T14:17:21;0.90;1.00
17992;DHT22;9121;50.926;5.340;2024-01-10T14:19:51;0.90;1.00
17992;DHT22;9121;50.926;5.340;2024-01-10T14:22:18;0.90;1.00
17992;DHT22;9121;50.926;5.340;2024-01-10T14:24:45;0.90;1.00
17992;DHT22;9121;50.926;5.340;2024-01-10T14:27:12;0.90;1.00
17992;DHT22;9121;50.926;5.340;2024-01-10T14:29:39;0.90;1.00
17992;DHT22;9121;50.926;5.340;2024-01-10T14:32:06;0.70;1.00
17992;DHT22;9121;50.926;5.340;2024-01-10T14:34:33;0.60;1.00
17992;DHT22;9121;50.926;5.340;2024-01-10T14:37:01;0.50;5.00
17992;DHT22;9121;50.926;5.340;2024-01-10T14:39:29;0.60;17.20
17992;DHT22;9121;50.926;5.340;2024-01-10T14:41:56;0.60;20.50
17992;DHT22;9121;50.926;5.340;2024-01-10T14:44:23;0.60;31.60
17992;DHT22;9121;50.926;5.340;2024-01-10T14:46:50;0.70;91.20
17992;DHT22;9121;50.926;5.340;2024-01-10T14:49:17;0.80;89.60
17992;DHT22;9121;50.926;5.340;2024-01-10T14:51:44;0.70;79.00
17992;DHT22;9121;50.926;5.340;2024-01-10T14:54:14;0.70;97.80
17992;DHT22;9121;50.926;5.340;2024-01-10T14:56:41;0.70;99.90
17992;DHT22;9121;50.926;5.340;2024-01-10T14:59:10;0.50;99.90
17992;DHT22;9121;50.926;5.340;2024-01-10T15:01:37;0.60;99.90
17992;DHT22;9121;50.926;5.340;2024-01-10T15:04:04;0.60;99.90
17992;DHT22;9121;50.926;5.340;2024-01-10T15:06:31;0.50;99.90
17992;DHT22;9121;50.926;5.340;2024-01-10T15:08:58;0.50;99.90
17992;DHT22;9121;50.926;5.340;2024-01-10T15:11:27;0.60;99.90
17992;DHT22;9121;50.926;5.340;2024-01-10T15:13:53;0.70;99.90
17992;DHT22;9121;50.926;5.340;2024-01-10T15:16:22;0.60;99.90
17992;DHT22;9121;50.926;5.340;2024-01-10T15:18:49;0.60;99.90
17992;DHT22;9121;50.926;5.340;2024-01-10T15:21:17;0.50;99.90
17992;DHT22;9121;50.926;5.340;2024-01-10T15:23:45;0.50;99.90
17992;DHT22;9121;50.926;5.340;2024-01-10T15:26:15;0.50;99.90
17992;DHT22;9121;50.926;5.340;2024-01-10T15:28:45;0.40;99.90
17992;DHT22;9121;50.926;5.340;2024-01-10T15:31:14;0.50;99.90
17992;DHT22;9121;50.926;5.340;2024-01-10T15:33:41;0.50;99.90
17992;DHT22;9121;50.926;5.340;2024-01-10T15:36:08;0.60;99.90
17992;DHT22;9121;50.926;5.340;2024-01-10T15:38:39;0.50;99.90
17992;DHT22;9121;50.926;5.340;2024-01-10T15:41:06;0.40;99.90
17992;DHT22;9121;50.926;5.340;2024-01-10T15:43:34;0.20;99.90
17992;DHT22;9121;50.926;5.340;2024-01-10T15:46:03;0.20;99.90
17992;DHT22;9121;50.926;5.340;2024-01-10T15:48:30;0.20;99.90
17992;DHT22;9121;50.926;5.340;2024-01-10T15:50:57;0.20;99.90
17992;DHT22;9121;50.926;5.340;2024-01-10T15:53:24;0.20;1.00
17992;DHT22;9121;50.926;5.340;2024-01-10T15:55:51;0.20;1.00
17992;DHT22;9121;50.926;5.340;2024-01-10T15:58:21;0.20;1.00
17992;DHT22;9121;50.926;5.340;2024-01-10T16:00:48;0.20;1.00
17992;DHT22;9121;50.926;5.340;2024-01-10T16:03:18;0.30;1.00